Time;durP1;ratioP1;P1;durP2;ratioP2;P2;SDS_P1;SDS_P2;PMS_P1;PMS_P2;Temp;Humidity;BMP_temperature;BMP_pressure;BME280_temperature;BME280_humidity;BME280_pressure;Samples;Min_cycle;Max_cycle;Signal;HPM_P1;HPM_P2
2021/01/19 12:39:37;;;;;;;10.73;3.33;;;;;;;4.16;75.25;98460.34;6298150;22;1109111;-83
2021/01/19 12:42:04;;;;;;;6.93;2.63;;;;;;;3.98;75.50;98444.47;6369731;22;42695;-86
2021/01/19 12:44:31;;;;;;;3.00;2.40;;;;;;;4.20;75.46;98493.38;6337652;22;41574;-88
2021/01/19 12:46:59;;;;;;;5.83;2.40;;;;;;;4.06;75.57;98464.28;6344455;22;38966;-86
2021/01/19 12:49:26;;;;;;;8.40;2.90;;;;;;;4.10;76.14;98486.78;6344647;22;40871;-85
2021/01/19 12:51:53;;;;;;;3.17;2.20;;;;;;;3.94;76.54;98461.25;6344591;22;43069;-85
2021/01/19 12:54:21;;;;;;;6.03;2.83;;;;;;;3.95;76.94;98457.72;6344613;22;42294;-86
2021/01/19 12:56:49;;;;;;;4.40;2.97;;;;;;;3.86;77.17;98437.13;6344949;22;40135;-84
2021/01/19 12:59:16;;;;;;;6.33;2.93;;;;;;;4.07;76.72;98466.00;6370570;22;42456;-84
2021/01/19 13:01:43;;;;;;;9.73;3.00;;;;;;;3.93;76.89;98448.22;6344742;22;42155;-81
2021/01/19 13:04:11;;;;;;;6.33;2.87;;;;;;;4.02;77.16;98457.47;6371898;22;41756;-88
2021/01/19 13:06:45;;;;;;;4.80;2.97;;;;;;;3.95;77.18;98446.41;6371448;22;41105;-84
2021/01/19 13:09:12;;;;;;;4.70;3.00;;;;;;;3.68;77.70;98398.66;6344587;22;40765;-85
2021/01/19 13:11:40;;;;;;;6.63;3.20;;;;;;;4.04;77.42;98455.63;6344859;22;41855;-87
2021/01/19 13:14:09;;;;;;;4.60;2.50;;;;;;;4.03;77.58;98432.97;6344158;22;40968;-85
2021/01/19 13:16:36;;;;;;;5.83;2.80;;;;;;;3.86;77.75;98431.91;6370896;22;38898;-85
2021/01/19 13:19:03;;;;;;;5.43;3.07;;;;;;;3.92;78.20;98433.44;6369571;22;41967;-85
2021/01/19 13:21:30;;;;;;;3.73;2.60;;;;;;;3.85;78.24;98430.19;6344637;22;41860;-85
2021/01/19 13:23:58;;;;;;;3.60;3.03;;;;;;;3.94;78.42;98435.06;6344089;22;41542;-85
2021/01/19 13:26:25;;;;;;;7.17;2.80;;;;;;;3.95;78.63;98409.72;6370837;22;39712;-84
2021/01/19 13:28:52;;;;;;;4.87;2.90;;;;;;;3.99;78.27;98432.22;6370907;22;40898;-82
2021/01/19 13:31:21;;;;;;;4.17;3.10;;;;;;;3.94;78.70;98419.34;6344448;22;42711;-83
2021/01/19 13:33:49;;;;;;;5.13;3.07;;;;;;;3.95;78.59;98418.44;6369190;22;41928;-83
2021/01/19 13:36:16;;;;;;;4.87;2.90;;;;;;;4.04;78.65;98432.06;6368782;22;40319;-84
2021/01/19 13:38:43;;;;;;;5.93;3.30;;;;;;;3.96;78.76;98403.53;6370248;22;41856;-84
2021/01/19 13:41:14;;;;;;;3.37;2.70;;;;;;;3.99;79.23;98411.28;6371084;22;43507;-84
2021/01/19 13:43:42;;;;;;;5.40;2.87;;;;;;;4.03;79.04;98407.63;6349635;22;41796;-83
2021/01/19 13:46:09;;;;;;;5.17;2.90;;;;;;;4.14;79.23;98430.72;6346195;22;40038;-84
2021/01/19 13:48:37;;;;;;;5.83;3.00;;;;;;;3.98;79.45;98418.28;6349403;22;41131;-84
2021/01/19 13:51:05;;;;;;;4.67;2.87;;;;;;;4.09;79.28;98424.81;6349665;22;43214;-84
2021/01/19 13:53:32;;;;;;;5.70;2.80;;;;;;;4.11;79.43;98415.97;6356921;22;42992;-84
2021/01/19 13:55:59;;;;;;;4.57;3.37;;;;;;;4.14;79.43;98425.50;6385625;22;39668;-82
2021/01/19 13:58:26;;;;;;;4.77;2.93;;;;;;;4.04;79.98;98416.31;6371887;22;42288;-82
2021/01/19 14:00:53;;;;;;;5.77;3.40;;;;;;;4.04;79.81;98413.72;6364119;22;42064;-84
2021/01/19 14:03:22;;;;;;;3.13;2.60;;;;;;;3.96;80.52;98401.78;6373642;22;42556;-84
2021/01/19 14:05:50;;;;;;;4.43;2.87;;;;;;;4.01;80.40;98429.56;6349673;22;39246;-85
2021/01/19 14:08:17;;;;;;;6.53;2.90;;;;;;;3.87;80.19;98407.41;6377396;22;41074;-83
2021/01/19 14:10:46;;;;;;;5.63;3.33;;;;;;;4.03;80.35;98418.09;6350270;22;42153;-83
2021/01/19 14:13:13;;;;;;;5.40;2.90;;;;;;;4.07;80.62;98435.41;6403433;22;42343;-81
2021/01/19 14:15:41;;;;;;;4.20;2.80;;;;;;;3.90;80.66;98417.78;6350219;22;38972;-79
2021/01/19 14:18:08;;;;;;;5.80;2.90;;;;;;;4.03;80.85;98422.47;6377243;22;40554;-83
2021/01/19 14:20:35;;;;;;;4.80;2.80;;;;;;;3.96;81.18;98425.34;6376341;22;41834;-81
2021/01/19 14:23:03;;;;;;;5.93;3.20;;;;;;;4.04;81.35;98429.44;6351339;22;41047;-82
2021/01/19 14:25:31;;;;;;;5.17;2.67;;;;;;;4.11;81.30;98442.19;6376766;22;38825;-84
2021/01/19 14:27:58;;;;;;;4.07;2.60;;;;;;;4.11;81.51;98430.84;6377611;22;41200;-84
2021/01/19 14:30:25;;;;;;;3.93;3.03;;;;;;;4.13;81.31;98429.03;6349870;22;43120;-83
2021/01/19 14:32:52;;;;;;;3.87;2.30;;;;;;;4.12;81.51;98422.06;6376621;22;41848;-83
2021/01/19 14:35:19;;;;;;;4.57;3.00;;;;;;;4.22;81.47;98428.63;6403450;22;39811;-84
2021/01/19 14:37:46;;;;;;;5.63;2.93;;;;;;;4.28;81.46;98423.97;6377037;22;40759;-81
2021/01/19 14:40:15;;;;;;;5.47;2.90;;;;;;;4.06;81.22;98388.31;6373924;22;42967;-82
2021/01/19 14:42:43;;;;;;;4.17;2.70;;;;;;;4.25;81.80;98423.25;6377643;22;42481;-87
2021/01/19 14:45:11;;;;;;;4.53;2.60;;;;;;;4.11;81.71;98391.56;6403210;22;39780;-80
2021/01/19 14:47:38;;;;;;;2.87;2.57;;;;;;;4.28;81.53;98408.25;6351533;22;41746;-81
2021/01/19 14:50:06;;;;;;;3.77;2.63;;;;;;;4.47;81.40;98433.63;6375495;22;41735;-87
2021/01/19 14:52:33;;;;;;;4.30;2.47;;;;;;;4.41;81.49;98411.16;6351223;22;41697;-83
2021/01/19 14:55:02;;;;;;;3.57;2.60;;;;;;;4.48;81.32;98425.69;6374696;22;40053;-86
